Main page
Satellite images 10-day forecastsClimateMarine weather Cyclones Lightning AirportsFAQ Newsletter About
Weather : Europe Africa North America South America Asia Australia-Oceania Others
Languages Contact

Belgrade, Serbia

Belgrade Nikola Tesla Airport

latitude: 44-49N, longitude: 020-17E, elevation: 96 m


METAR: LYBE 060830Z 36009KT 4000 -SN BR BKN005 02/01 Q1028 TEMPO 2000
TAF: LYBE 060500Z 0606/0706 02010KT 8000 SCT008 BKN033 TX04/0613Z TNM01/0706Z PROB40 TEMPO 0606/0611 RA BKN007 BKN030

Time: 09:57 (08:57 UTC)

Current weather observation

The report was made 27 minutes ago, at 08:30 UTC
Wind 9 kt from the North
Temperature 2°C
Humidity 93%
Pressure 1028 hPa
Visibility: 4000 m
Broken clouds at a height of 500 ft
light snow, mist

Change units

Forecast

The report was made 3 hours and 57 minutes ago, at 05:00 UTC
Forecast valid from 06 at 06 UTC to 07 at 06 UTC
Wind 10 kt from the North/Northeast
Visibility: 8000 m
Scattered clouds at a height of 800 ft
Broken clouds at a height of 3300 ft
Probability 40% :
Temporary
from 06 at 06 UTC to 06 at 11 UTC
Broken clouds at a height of 700 ft
Broken clouds at a height of 3000 ft
rain
The information on this site is subject to a disclaimer
Weather : Europe Africa North America South America Asia Australia-Oceania Others
Satellite images 10-day forecastsClimateMarine weather Cyclones Lightning AirportsFAQ Languages Contact Newsletter About